Portada
METAR-TAF:

METAR-TAF

Aeroports :

Asaluyeh, Iran

latitud: 27-22-46N, longitud: 52-44-15E, altitud: 8 m

Observació

L'informe es va fer fa 39 minuts, a les 02:00 UTC
Vent 6 kt del Sud-Est
Temperatura 28°C
Humitat 79%
Pressió 996 hPa
Visibilitat: 5000 m
calitja

METAR: OIBP 180200Z 13006KT 5000 HZ NSC 28/24 Q0996 A2941

Hora: 07:09 (02:39 UTC)

Pronòstic

L'informe es va fer fa 3 hores i 39 minuts, a les 23:00 UTC
Pronòstic vàlid del 18 a les 00 UTC al 18 a les 09 UTC
Vent 8 kt del Oest/Nord-Oest
Visibilitat: 3000 m

TAF: OIBP 172300Z 1800/1809 29008KT 3000 HZ/BR NSC

Observacions i pronòstics meteorològics de més de 4000 aeroports (METAR i TAF).

Les estacions disponibles són els punts grocs i vermells al mapa.

Posi el ratolí al punt desitjat per veure el nom de l'estació.

Feu clic per veure les observacions i els pronòstics meteorològics.

Per canviar el mapa: feu clic els botons verds amb una creu de color negre per apropar; al botó verd amb un guió per allunyar la imatge; o en les fletxes verdes per a mapes adjacents.


METAR-TAF: